createdAt,value
2017-11-08T00:02:01.379Z,99.90
2017-11-08T00:04:29.014Z,99.90
2017-11-08T00:06:56.671Z,99.90
2017-11-08T00:09:24.299Z,99.80
2017-11-08T00:11:51.933Z,99.60
2017-11-08T00:14:19.593Z,99.80
2017-11-08T00:16:47.226Z,99.60
2017-11-08T00:19:14.878Z,99.80
2017-11-08T00:21:45.110Z,99.60
2017-11-08T00:24:12.748Z,99.20
2017-11-08T00:26:40.409Z,98.60
2017-11-08T00:29:08.041Z,99.30
2017-11-08T00:31:35.681Z,99.40
2017-11-08T00:34:03.339Z,99.70
2017-11-08T00:36:30.971Z,99.90
2017-11-08T00:38:58.594Z,99.90
2017-11-08T00:41:26.279Z,99.30
2017-11-08T00:43:53.894Z,98.80
2017-11-08T00:46:21.524Z,98.90
2017-11-08T00:48:49.182Z,99.10
2017-11-08T00:51:16.822Z,99.30
2017-11-08T00:53:44.455Z,99.80
2017-11-08T00:56:12.881Z,99.70
2017-11-08T00:58:40.501Z,99.70
2017-11-08T01:01:08.137Z,99.60
2017-11-08T01:03:35.923Z,99.60
2017-11-08T01:06:03.571Z,99.70
2017-11-08T01:08:31.194Z,99.90
2017-11-08T01:10:58.867Z,99.90
2017-11-08T01:13:26.489Z,99.90
2017-11-08T01:15:54.145Z,99.90
2017-11-08T01:18:21.767Z,99.90
2017-11-08T01:20:49.413Z,99.70
2017-11-08T01:23:17.075Z,99.90
2017-11-08T01:25:44.714Z,99.90
2017-11-08T01:28:12.372Z,99.90
2017-11-08T01:30:39.995Z,99.90
2017-11-08T01:33:07.624Z,99.90
2017-11-08T01:35:35.352Z,99.90
2017-11-08T01:38:08.734Z,99.90
2017-11-08T01:40:42.767Z,99.90
2017-11-08T01:43:10.386Z,99.90
2017-11-08T01:45:41.329Z,99.90
2017-11-08T01:48:08.949Z,99.90
2017-11-08T01:50:39.120Z,99.90
2017-11-08T01:53:06.756Z,99.90
2017-11-08T01:55:34.389Z,99.90
2017-11-08T01:58:02.037Z,99.90
2017-11-08T02:00:29.666Z,99.90
2017-11-08T02:02:57.291Z,99.90
2017-11-08T02:05:25.755Z,99.90
2017-11-08T02:07:54.149Z,99.90
2017-11-08T02:10:21.783Z,99.90
2017-11-08T02:12:49.503Z,99.90
2017-11-08T02:15:17.135Z,99.90
2017-11-08T02:17:50.368Z,99.90
2017-11-08T02:20:18.003Z,99.90
2017-11-08T02:22:45.640Z,99.90
2017-11-08T02:25:14.071Z,99.90
2017-11-08T02:27:41.692Z,99.90
2017-11-08T02:30:09.331Z,99.90
2017-11-08T02:32:37.002Z,99.90
2017-11-08T02:35:04.652Z,99.90
2017-11-08T02:37:32.733Z,99.90
2017-11-08T02:40:01.203Z,99.90
2017-11-08T02:42:29.603Z,99.90
2017-11-08T02:44:57.271Z,99.90
2017-11-08T02:47:24.907Z,99.90
2017-11-08T02:49:52.639Z,99.90
2017-11-08T02:52:20.288Z,99.90
2017-11-08T02:54:47.923Z,99.90
2017-11-08T02:57:15.583Z,99.90
2017-11-08T02:59:43.267Z,99.90
2017-11-08T03:02:11.934Z,99.90
2017-11-08T03:04:45.195Z,99.90
2017-11-08T03:07:12.862Z,99.90
2017-11-08T03:09:40.495Z,99.90
2017-11-08T03:12:08.153Z,99.90
2017-11-08T03:14:35.820Z,99.90
2017-11-08T03:17:03.451Z,99.90
2017-11-08T03:19:31.114Z,99.90
2017-11-08T03:21:58.743Z,99.90
2017-11-08T03:24:26.369Z,99.90
2017-11-08T03:26:54.033Z,99.90
2017-11-08T03:29:21.662Z,99.90
2017-11-08T03:31:49.314Z,99.90
2017-11-08T03:34:16.927Z,99.90
2017-11-08T03:36:44.598Z,99.90
2017-11-08T03:39:12.249Z,99.90
2017-11-08T03:41:39.890Z,99.90
2017-11-08T03:44:07.539Z,99.90
2017-11-08T03:46:35.170Z,99.90
2017-11-08T03:49:02.872Z,99.90
2017-11-08T03:51:30.528Z,99.90
2017-11-08T03:53:58.159Z,99.90
2017-11-08T03:56:25.811Z,99.90
2017-11-08T03:58:53.432Z,99.90
2017-11-08T04:01:21.068Z,99.90
2017-11-08T04:03:48.747Z,99.90
2017-11-08T04:06:16.367Z,99.90
2017-11-08T04:08:44.025Z,99.90
2017-11-08T04:11:11.646Z,99.90
2017-11-08T04:13:39.280Z,99.90
2017-11-08T04:16:06.939Z,99.90
2017-11-08T04:18:34.562Z,99.90
2017-11-08T04:21:02.233Z,99.90
2017-11-08T04:23:29.872Z,99.90
2017-11-08T04:25:57.506Z,99.90
2017-11-08T04:28:25.203Z,99.90
2017-11-08T04:30:52.832Z,99.90
2017-11-08T04:33:20.491Z,99.90
2017-11-08T04:35:48.119Z,99.90
2017-11-08T04:38:15.747Z,99.90
2017-11-08T04:40:43.406Z,99.90
2017-11-08T04:43:11.112Z,99.90
2017-11-08T04:45:39.542Z,99.90
2017-11-08T04:48:07.174Z,99.90
2017-11-08T04:50:34.798Z,99.90
2017-11-08T04:53:02.471Z,99.90
2017-11-08T04:55:30.099Z,99.90
2017-11-08T04:57:57.762Z,99.90
2017-11-08T05:00:25.390Z,99.90
2017-11-08T05:02:53.030Z,99.90
2017-11-08T05:05:20.693Z,99.90
2017-11-08T05:07:48.307Z,99.90
2017-11-08T05:10:15.971Z,99.90
2017-11-08T05:12:43.646Z,99.90
2017-11-08T05:15:11.407Z,99.90
2017-11-08T05:17:39.082Z,99.90
2017-11-08T05:20:07.602Z,99.90
2017-11-08T05:22:35.275Z,99.90
2017-11-08T05:25:02.898Z,99.90
2017-11-08T05:27:30.514Z,99.90
2017-11-08T05:29:58.191Z,99.90
2017-11-08T05:32:25.839Z,99.90
2017-11-08T05:34:53.499Z,99.90
2017-11-08T05:37:21.127Z,99.90
2017-11-08T05:39:48.759Z,99.90
2017-11-08T05:42:16.422Z,99.90
2017-11-08T05:44:44.112Z,99.90
2017-11-08T05:47:11.772Z,99.90
2017-11-08T05:49:40.211Z,99.90
2017-11-08T05:52:07.844Z,99.90
2017-11-08T05:54:35.505Z,99.90
2017-11-08T05:57:03.122Z,99.90
2017-11-08T05:59:30.799Z,99.90
2017-11-08T06:01:58.441Z,99.90
2017-11-08T06:04:26.072Z,99.90
2017-11-08T06:06:53.727Z,99.90
2017-11-08T06:09:21.375Z,99.90
2017-11-08T06:11:49.034Z,99.90
2017-11-08T06:14:16.678Z,99.90
2017-11-08T06:16:44.300Z,99.90
2017-11-08T06:19:11.964Z,99.90
2017-11-08T06:21:39.615Z,99.90
2017-11-08T06:24:07.876Z,99.90
2017-11-08T06:26:35.502Z,99.90
2017-11-08T06:29:03.134Z,99.90
2017-11-08T06:31:30.818Z,99.90
2017-11-08T06:33:58.452Z,99.90
2017-11-08T06:36:26.113Z,99.90
2017-11-08T06:38:53.740Z,99.90
2017-11-08T06:41:21.390Z,99.90
2017-11-08T06:43:49.049Z,99.90
2017-11-08T06:46:16.691Z,99.90
2017-11-08T06:48:44.352Z,99.90
2017-11-08T06:51:11.976Z,99.90
2017-11-08T06:53:42.435Z,99.90
2017-11-08T06:56:10.097Z,99.90
2017-11-08T06:58:37.715Z,99.90
2017-11-08T07:01:06.130Z,99.90
2017-11-08T07:03:33.758Z,99.90
2017-11-08T07:06:01.387Z,99.90
2017-11-08T07:08:30.968Z,99.90
2017-11-08T07:10:59.354Z,99.90
2017-11-08T07:13:27.001Z,99.90
2017-11-08T07:15:54.629Z,99.90
2017-11-08T07:18:23.051Z,99.90
2017-11-08T07:20:50.695Z,99.90
2017-11-08T07:23:18.328Z,99.90
2017-11-08T07:25:45.994Z,99.90
2017-11-08T07:28:14.423Z,99.90
2017-11-08T07:30:42.051Z,99.90
2017-11-08T07:33:09.705Z,99.90
2017-11-08T07:35:37.333Z,99.90
2017-11-08T07:38:05.768Z,99.90
2017-11-08T07:40:33.407Z,99.90
2017-11-08T07:43:01.063Z,99.90
2017-11-08T07:45:28.738Z,99.90
2017-11-08T07:47:57.128Z,99.90
2017-11-08T07:50:24.774Z,99.90
2017-11-08T07:52:52.394Z,99.90
2017-11-08T07:55:22.588Z,99.90
2017-11-08T07:57:51.020Z,99.90
2017-11-08T08:00:18.645Z,99.90
2017-11-08T08:02:46.294Z,99.90
2017-11-08T08:05:13.927Z,99.90
2017-11-08T08:07:41.550Z,99.50
2017-11-08T08:10:09.985Z,92.70
2017-11-08T08:12:38.387Z,89.30
2017-11-08T08:15:06.039Z,89.20
2017-11-08T08:17:33.676Z,88.90
2017-11-08T08:20:02.060Z,88.30
2017-11-08T08:22:29.775Z,88.30
2017-11-08T08:24:59.310Z,91.10
2017-11-08T08:27:26.964Z,91.20
2017-11-08T08:29:54.586Z,91.00
2017-11-08T08:32:22.214Z,91.00
2017-11-08T08:34:50.661Z,92.80
2017-11-08T08:37:18.289Z,92.80
2017-11-08T08:39:45.966Z,93.80
2017-11-08T08:42:14.406Z,93.40
2017-11-08T08:44:42.038Z,93.40
2017-11-08T08:47:09.688Z,93.90
2017-11-08T08:49:37.311Z,94.30
2017-11-08T08:52:04.977Z,95.00
2017-11-08T08:54:32.604Z,94.60
2017-11-08T08:57:00.223Z,94.70
2017-11-08T08:59:28.723Z,92.80
2017-11-08T09:01:56.350Z,92.80
2017-11-08T09:04:24.008Z,91.20
2017-11-08T09:06:51.641Z,90.90
2017-11-08T09:09:19.267Z,91.60
2017-11-08T09:11:47.702Z,91.30
2017-11-08T09:14:16.534Z,91.20
2017-11-08T09:16:44.202Z,90.50
2017-11-08T09:19:11.838Z,90.70
2017-11-08T09:21:39.543Z,90.20
2017-11-08T09:24:07.966Z,90.70
2017-11-08T09:26:35.604Z,90.70
2017-11-08T09:29:04.006Z,90.40
2017-11-08T09:31:36.636Z,88.70
2017-11-08T09:34:04.296Z,86.90
2017-11-08T09:36:34.751Z,85.20
2017-11-08T09:39:03.150Z,86.00
2017-11-08T09:41:31.587Z,86.00
2017-11-08T09:43:59.254Z,86.20
2017-11-08T09:46:26.920Z,87.10
2017-11-08T09:48:54.597Z,87.20
2017-11-08T09:51:22.218Z,86.10
2017-11-08T09:53:49.874Z,85.00
2017-11-08T09:56:19.295Z,84.80
2017-11-08T09:58:47.700Z,87.50
2017-11-08T10:01:16.307Z,87.50
2017-11-08T10:03:43.931Z,90.80
2017-11-08T10:06:11.556Z,87.10
2017-11-08T10:08:41.165Z,86.80
2017-11-08T10:11:23.579Z,87.30
2017-11-08T10:13:51.493Z,86.60
2017-11-08T10:16:19.138Z,87.90
2017-11-08T10:18:46.762Z,88.80
2017-11-08T10:21:14.749Z,88.20
2017-11-08T10:23:42.366Z,87.10
2017-11-08T10:26:09.991Z,88.10
2017-11-08T10:28:38.411Z,86.90
2017-11-08T10:31:06.041Z,86.80
2017-11-08T10:33:33.675Z,86.30
2017-11-08T10:36:01.363Z,86.50
2017-11-08T10:38:28.991Z,87.10
2017-11-08T10:40:56.618Z,86.10
2017-11-08T10:43:24.242Z,86.80
2017-11-08T10:45:51.929Z,87.50
2017-11-08T10:48:19.637Z,88.10
2017-11-08T10:50:47.286Z,88.50
2017-11-08T10:53:14.920Z,88.20
2017-11-08T10:55:42.590Z,88.60
2017-11-08T10:58:10.213Z,89.10
2017-11-08T11:00:52.680Z,89.00
2017-11-08T11:03:27.025Z,89.50
2017-11-08T11:05:54.696Z,89.50
2017-11-08T11:08:22.320Z,88.70
2017-11-08T11:10:49.945Z,88.10
2017-11-08T11:13:17.619Z,87.40
2017-11-08T11:15:45.237Z,88.10
2017-11-08T11:18:12.864Z,88.70
2017-11-08T11:20:41.299Z,91.10
2017-11-08T11:23:08.927Z,91.10
2017-11-08T11:25:38.273Z,91.70
2017-11-08T11:28:06.033Z,93.20
2017-11-08T11:30:33.656Z,92.60
2017-11-08T11:33:01.289Z,92.70
2017-11-08T11:35:29.019Z,91.90
2017-11-08T11:37:56.647Z,91.20
2017-11-08T11:40:24.294Z,90.90
2017-11-08T11:42:51.973Z,89.00
2017-11-08T11:45:19.591Z,88.60
2017-11-08T11:47:50.065Z,87.20
2017-11-08T11:50:18.500Z,88.00
2017-11-08T11:52:46.119Z,87.30
2017-11-08T11:55:13.753Z,86.50
2017-11-08T11:57:41.406Z,86.90
2017-11-08T12:00:11.970Z,83.90
2017-11-08T12:02:40.376Z,82.70
2017-11-08T12:05:08.044Z,82.70
2017-11-08T12:07:38.241Z,82.50
2017-11-08T12:10:08.801Z,83.90
2017-11-08T12:12:37.201Z,82.20
2017-11-08T12:15:04.889Z,82.20
2017-11-08T12:17:32.543Z,82.80
2017-11-08T12:20:00.208Z,82.10
2017-11-08T12:22:29.331Z,81.60
2017-11-08T12:24:56.997Z,82.90
2017-11-08T12:27:30.212Z,83.30
2017-11-08T12:29:57.859Z,83.80
2017-11-08T12:32:25.617Z,81.70
2017-11-08T12:34:58.989Z,83.30
2017-11-08T12:37:27.620Z,83.30
2017-11-08T12:39:57.768Z,81.80
2017-11-08T12:42:27.119Z,82.60
2017-11-08T12:44:57.502Z,82.50
2017-11-08T12:47:25.163Z,81.00
2017-11-08T12:49:52.841Z,80.40
2017-11-08T12:52:20.526Z,80.80
2017-11-08T12:54:48.261Z,81.70
2017-11-08T12:57:16.717Z,82.50
2017-11-08T12:59:44.371Z,82.50
2017-11-08T13:02:12.754Z,80.50
2017-11-08T13:04:40.390Z,80.10
2017-11-08T13:07:08.823Z,79.90
2017-11-08T13:09:38.314Z,79.80
2017-11-08T13:12:06.170Z,80.90
2017-11-08T13:14:33.819Z,81.60
2017-11-08T13:17:01.454Z,82.20
2017-11-08T13:19:29.237Z,83.80
2017-11-08T13:21:57.651Z,83.80
2017-11-08T13:24:25.304Z,83.70
2017-11-08T13:26:52.938Z,84.80
2017-11-08T13:29:20.572Z,85.10
2017-11-08T13:31:48.231Z,84.50
2017-11-08T13:34:15.872Z,85.00
2017-11-08T13:36:43.531Z,84.30
2017-11-08T13:39:11.156Z,83.80
2017-11-08T13:41:38.779Z,83.60
2017-11-08T13:44:06.463Z,83.80
2017-11-08T13:46:34.114Z,83.70
2017-11-08T13:49:01.820Z,84.10
2017-11-08T13:51:30.400Z,85.30
2017-11-08T13:53:58.063Z,84.60
2017-11-08T13:56:25.746Z,84.40
2017-11-08T13:58:53.389Z,84.60
2017-11-08T14:01:21.047Z,84.50
2017-11-08T14:03:48.675Z,83.60
2017-11-08T14:06:16.435Z,84.40
2017-11-08T14:08:44.087Z,84.80
2017-11-08T14:11:11.712Z,84.30
2017-11-08T14:13:39.368Z,85.40
2017-11-08T14:16:06.991Z,84.60
2017-11-08T14:18:34.626Z,84.10
2017-11-08T14:21:02.349Z,84.40
2017-11-08T14:23:30.739Z,86.40
2017-11-08T14:25:58.387Z,85.70
2017-11-08T14:28:26.021Z,85.50
2017-11-08T14:30:54.420Z,85.40
2017-11-08T14:33:22.098Z,85.40
2017-11-08T14:35:49.728Z,85.60
2017-11-08T14:38:17.393Z,85.50
2017-11-08T14:40:45.022Z,86.50
2017-11-08T14:43:12.662Z,86.00
2017-11-08T14:45:40.336Z,86.30
2017-11-08T14:48:07.950Z,85.40
2017-11-08T14:50:35.607Z,85.50
2017-11-08T14:53:08.200Z,86.00
2017-11-08T14:55:36.644Z,85.80
2017-11-08T14:58:04.274Z,85.70
2017-11-08T15:00:31.906Z,85.60
2017-11-08T15:02:59.569Z,85.30
2017-11-08T15:05:27.221Z,85.20
2017-11-08T15:07:54.874Z,85.60
2017-11-08T15:10:22.506Z,86.00
2017-11-08T15:12:50.136Z,86.40
2017-11-08T15:15:19.680Z,86.30
2017-11-08T15:17:47.314Z,86.00
2017-11-08T15:20:20.662Z,86.00
2017-11-08T15:22:48.297Z,87.10
2017-11-08T15:25:15.923Z,88.40
2017-11-08T15:27:44.406Z,88.90
2017-11-08T15:30:17.625Z,88.90
2017-11-08T15:32:47.243Z,89.00
2017-11-08T15:35:15.669Z,89.00
2017-11-08T15:37:43.330Z,89.60
2017-11-08T15:40:21.015Z,89.80
2017-11-08T15:42:48.675Z,90.80
2017-11-08T15:45:16.317Z,90.80
2017-11-08T15:47:46.791Z,90.70
2017-11-08T15:50:14.469Z,91.00
2017-11-08T15:52:42.110Z,91.70
2017-11-08T15:55:09.814Z,91.30
2017-11-08T15:57:37.440Z,90.40
2017-11-08T16:00:05.890Z,90.60
2017-11-08T16:02:33.580Z,90.40
2017-11-08T16:05:01.230Z,91.00
2017-11-08T16:07:28.936Z,91.60
2017-11-08T16:09:56.605Z,91.50
2017-11-08T16:12:24.843Z,91.80
2017-11-08T16:14:52.550Z,91.60
2017-11-08T16:17:20.210Z,91.70
2017-11-08T16:19:47.838Z,92.00
2017-11-08T16:22:15.472Z,92.80
2017-11-08T16:24:43.220Z,94.00
2017-11-08T16:27:10.931Z,93.40
2017-11-08T16:29:38.583Z,93.40
2017-11-08T16:32:06.987Z,92.90
2017-11-08T16:34:34.675Z,92.90
2017-11-08T16:37:02.434Z,93.00
2017-11-08T16:39:30.843Z,91.80
2017-11-08T16:41:58.769Z,91.80
2017-11-08T16:44:26.562Z,90.10
2017-11-08T16:46:54.232Z,90.40
2017-11-08T16:49:21.907Z,89.90
2017-11-08T16:51:50.303Z,91.50
2017-11-08T16:54:17.967Z,91.40
2017-11-08T16:56:45.621Z,90.30
2017-11-08T16:59:13.328Z,90.00
2017-11-08T17:01:41.020Z,90.90
2017-11-08T17:04:08.660Z,90.30
2017-11-08T17:06:36.317Z,91.10
2017-11-08T17:09:03.968Z,90.70
2017-11-08T17:11:33.321Z,91.60
2017-11-08T17:14:06.428Z,91.30
2017-11-08T17:16:34.075Z,91.50
2017-11-08T17:19:03.132Z,90.50
2017-11-08T17:21:30.799Z,90.30
2017-11-08T17:23:58.435Z,90.90
2017-11-08T17:26:26.085Z,91.30
2017-11-08T17:28:53.760Z,91.30
2017-11-08T17:31:21.425Z,91.30
2017-11-08T17:33:49.847Z,91.90
2017-11-08T17:36:17.481Z,91.90
2017-11-08T17:38:45.160Z,91.90
2017-11-08T17:41:12.821Z,91.40
2017-11-08T17:43:41.323Z,91.60
2017-11-08T17:46:08.955Z,91.40
2017-11-08T17:48:38.384Z,92.00
2017-11-08T17:51:06.953Z,92.00
2017-11-08T17:53:35.482Z,92.10
2017-11-08T17:56:03.701Z,92.10
2017-11-08T17:58:31.365Z,92.70
2017-11-08T18:00:59.817Z,92.70
2017-11-08T18:03:27.558Z,92.60
2017-11-08T18:05:55.191Z,92.10
2017-11-08T18:08:23.061Z,92.30
2017-11-08T18:10:50.840Z,91.80
2017-11-08T18:13:19.235Z,92.30
2017-11-08T18:15:46.950Z,92.30
2017-11-08T18:18:15.344Z,92.10
2017-11-08T18:20:43.015Z,92.10
2017-11-08T18:23:10.648Z,92.00
2017-11-08T18:25:38.281Z,92.10
2017-11-08T18:28:06.023Z,91.40
2017-11-08T18:30:33.814Z,91.70
2017-11-08T18:33:01.504Z,91.80
2017-11-08T18:35:29.192Z,92.10
2017-11-08T18:37:56.821Z,92.50
2017-11-08T18:40:24.484Z,92.40
2017-11-08T18:42:52.287Z,91.90
2017-11-08T18:45:20.724Z,92.70
2017-11-08T18:47:48.358Z,92.70
2017-11-08T18:50:16.011Z,92.90
2017-11-08T18:52:43.689Z,92.30
2017-11-08T18:55:11.670Z,92.50
2017-11-08T18:57:39.327Z,92.50
2017-11-08T19:00:06.960Z,92.70
2017-11-08T19:02:34.600Z,92.30
2017-11-08T19:05:02.290Z,92.30
2017-11-08T19:07:29.953Z,91.50
2017-11-08T19:09:57.609Z,91.90
2017-11-08T19:12:25.246Z,92.30
2017-11-08T19:14:52.998Z,92.90
2017-11-08T19:17:22.646Z,93.00
2017-11-08T19:19:50.311Z,92.70
2017-11-08T19:22:17.974Z,92.60
2017-11-08T19:24:45.679Z,93.20
2017-11-08T19:27:13.327Z,92.60
2017-11-08T19:29:41.007Z,93.20
2017-11-08T19:32:09.392Z,93.20
2017-11-08T19:34:37.064Z,93.40
2017-11-08T19:37:05.455Z,92.50
2017-11-08T19:39:33.216Z,92.50
2017-11-08T19:42:00.874Z,92.60
2017-11-08T19:44:28.500Z,92.10
2017-11-08T19:46:56.162Z,92.50
2017-11-08T19:49:23.842Z,92.60
2017-11-08T19:51:51.480Z,93.20
2017-11-08T19:54:19.244Z,93.20
2017-11-08T19:56:46.884Z,93.30
2017-11-08T19:59:14.556Z,93.60
2017-11-08T20:01:42.188Z,92.60
2017-11-08T20:04:10.620Z,92.50
2017-11-08T20:06:38.293Z,92.40
2017-11-08T20:09:06.728Z,92.40
2017-11-08T20:11:34.408Z,92.40
2017-11-08T20:14:02.063Z,92.40
2017-11-08T20:16:30.471Z,92.20
2017-11-08T20:18:58.127Z,92.20
2017-11-08T20:21:25.760Z,91.50
2017-11-08T20:23:53.434Z,91.80
2017-11-08T20:26:21.459Z,91.90
2017-11-08T20:28:49.095Z,92.50
2017-11-08T20:31:16.905Z,93.10
2017-11-08T20:33:44.654Z,93.00
2017-11-08T20:36:12.325Z,92.50
2017-11-08T20:38:40.741Z,91.40
2017-11-08T20:41:08.418Z,91.30
2017-11-08T20:43:36.091Z,91.90
2017-11-08T20:46:03.753Z,93.20
2017-11-08T20:48:31.460Z,92.50
2017-11-08T20:50:59.100Z,91.30
2017-11-08T20:53:26.733Z,91.90
2017-11-08T20:55:54.388Z,92.00
2017-11-08T20:58:22.181Z,92.30
2017-11-08T21:00:49.930Z,91.90
2017-11-08T21:03:17.563Z,91.80
2017-11-08T21:05:45.958Z,90.70
2017-11-08T21:08:13.654Z,90.70
2017-11-08T21:10:41.644Z,91.40
2017-11-08T21:13:09.303Z,92.00
2017-11-08T21:15:37.280Z,92.00
2017-11-08T21:18:06.073Z,92.10
2017-11-08T21:20:33.792Z,92.10
2017-11-08T21:23:01.795Z,92.30
2017-11-08T21:25:29.536Z,91.90
2017-11-08T21:27:57.292Z,92.40
2017-11-08T21:30:24.940Z,92.60
2017-11-08T21:32:52.617Z,92.80
2017-11-08T21:35:21.036Z,93.50
2017-11-08T21:37:48.708Z,93.50
2017-11-08T21:40:16.347Z,93.30
2017-11-08T21:42:43.992Z,92.60
2017-11-08T21:45:11.663Z,92.00
2017-11-08T21:47:39.316Z,92.00
2017-11-08T21:50:06.996Z,92.50
2017-11-08T21:52:34.633Z,93.20
2017-11-08T21:55:02.270Z,93.20
2017-11-08T21:57:30.191Z,92.50
2017-11-08T21:59:57.833Z,92.20
2017-11-08T22:02:25.671Z,93.90
2017-11-08T22:04:54.131Z,93.50
2017-11-08T22:07:22.533Z,93.80
2017-11-08T22:09:50.187Z,93.80
2017-11-08T22:12:17.833Z,93.40
2017-11-08T22:14:45.501Z,93.60
2017-11-08T22:17:13.135Z,93.80
2017-11-08T22:19:40.769Z,94.40
2017-11-08T22:22:08.457Z,94.50
2017-11-08T22:24:39.037Z,94.90
2017-11-08T22:27:07.793Z,94.90
2017-11-08T22:29:35.443Z,95.00
2017-11-08T22:32:03.493Z,94.80
2017-11-08T22:34:35.028Z,94.50
2017-11-08T22:37:02.663Z,94.10
2017-11-08T22:39:30.335Z,94.50
2017-11-08T22:41:57.970Z,94.60
2017-11-08T22:44:25.611Z,94.60
2017-11-08T22:46:53.273Z,95.00
2017-11-08T22:49:20.907Z,94.70
2017-11-08T22:51:48.580Z,94.50
2017-11-08T22:54:16.300Z,95.00
2017-11-08T22:56:43.938Z,95.40
2017-11-08T22:59:11.608Z,96.20
2017-11-08T23:01:39.259Z,96.30
2017-11-08T23:04:06.946Z,96.40
2017-11-08T23:06:35.339Z,96.50
2017-11-08T23:09:03.545Z,96.50
2017-11-08T23:11:32.962Z,96.60
2017-11-08T23:14:01.352Z,97.10
2017-11-08T23:16:29.555Z,97.00
2017-11-08T23:18:57.229Z,97.10
2017-11-08T23:21:24.863Z,97.00
2017-11-08T23:23:52.516Z,97.20
2017-11-08T23:26:23.309Z,97.60
2017-11-08T23:28:51.067Z,97.60
2017-11-08T23:31:18.699Z,97.40
2017-11-08T23:33:46.388Z,97.20
2017-11-08T23:36:14.813Z,97.20
2017-11-08T23:38:42.445Z,97.10
2017-11-08T23:41:10.103Z,97.30
2017-11-08T23:43:37.733Z,97.60
2017-11-08T23:46:05.370Z,97.80
2017-11-08T23:48:33.038Z,97.20
2017-11-08T23:51:00.686Z,97.00
2017-11-08T23:53:28.351Z,97.00
2017-11-08T23:55:55.994Z,97.20
2017-11-08T23:58:23.661Z,98.00
